createdAt,value
2022-08-19T00:02:00.665Z,17.90
2022-08-19T00:04:31.863Z,17.90
2022-08-19T00:06:59.500Z,17.90
2022-08-19T00:09:26.813Z,17.80
2022-08-19T00:11:56.185Z,17.80
2022-08-19T00:14:24.864Z,17.90
2022-08-19T00:16:55.057Z,17.80
2022-08-19T00:19:22.871Z,17.80
2022-08-19T00:21:49.629Z,17.80
2022-08-19T00:24:16.932Z,17.80
2022-08-19T00:26:46.069Z,17.80
2022-08-19T00:29:16.500Z,17.70
2022-08-19T00:31:43.985Z,17.70
2022-08-19T00:34:12.744Z,17.60
2022-08-19T00:36:40.430Z,17.60
2022-08-19T00:39:07.558Z,17.60
2022-08-19T00:41:34.240Z,17.60
2022-08-19T00:44:02.612Z,17.60
2022-08-19T00:46:30.161Z,17.60
2022-08-19T00:48:58.394Z,17.50
2022-08-19T00:51:28.119Z,17.50
2022-08-19T00:53:57.836Z,17.50
2022-08-19T00:56:25.025Z,17.50
2022-08-19T00:58:51.733Z,17.50
2022-08-19T01:01:18.440Z,17.50
2022-08-19T01:03:58.047Z,17.40
2022-08-19T01:06:26.703Z,17.40
2022-08-19T01:08:54.696Z,17.40
2022-08-19T01:11:22.055Z,17.40
2022-08-19T01:13:50.408Z,17.40
2022-08-19T01:16:18.642Z,17.40
2022-08-19T01:18:45.314Z,17.30
2022-08-19T01:21:22.898Z,17.40
2022-08-19T01:23:52.192Z,17.30
2022-08-19T01:26:23.656Z,17.30
2022-08-19T01:28:53.409Z,17.20
2022-08-19T01:31:26.507Z,17.20
2022-08-19T01:33:57.749Z,17.20
2022-08-19T01:36:50.606Z,17.20
2022-08-19T01:39:22.584Z,17.20
2022-08-19T01:41:49.974Z,17.20
2022-08-19T01:44:18.842Z,17.10
2022-08-19T01:46:48.325Z,17.20
2022-08-19T01:49:16.687Z,17.20
2022-08-19T01:51:43.456Z,17.20
2022-08-19T01:54:12.294Z,17.10
2022-08-19T01:56:39.504Z,17.10
2022-08-19T01:59:12.271Z,17.10
2022-08-19T02:01:39.298Z,17.10
2022-08-19T02:04:06.666Z,17.10
2022-08-19T02:06:34.041Z,17.10
2022-08-19T02:09:01.191Z,17.10
2022-08-19T02:11:32.511Z,17.10
2022-08-19T02:14:00.385Z,17.10
2022-08-19T02:16:27.413Z,17.10
2022-08-19T02:18:54.056Z,17.00
2022-08-19T02:21:22.757Z,17.00
2022-08-19T02:23:50.510Z,17.00
2022-08-19T02:26:17.832Z,17.00
2022-08-19T02:28:44.954Z,17.00
2022-08-19T02:31:13.382Z,17.00
2022-08-19T02:33:40.096Z,16.90
2022-08-19T02:36:08.244Z,16.90
2022-08-19T02:38:36.030Z,16.90
2022-08-19T02:41:08.118Z,16.90
2022-08-19T02:43:39.503Z,16.90
2022-08-19T02:46:22.055Z,16.90
2022-08-19T02:48:50.626Z,16.90
2022-08-19T02:51:24.738Z,17.00
2022-08-19T02:53:51.941Z,16.90
2022-08-19T02:56:19.692Z,16.90
2022-08-19T02:58:46.569Z,16.80
2022-08-19T03:01:31.105Z,16.80
2022-08-19T03:04:00.148Z,16.80
2022-08-19T03:06:27.531Z,16.80
2022-08-19T03:08:55.246Z,16.80
2022-08-19T03:11:28.165Z,16.80
2022-08-19T03:13:55.334Z,16.80
2022-08-19T03:16:24.090Z,16.80
2022-08-19T03:18:51.747Z,16.80
2022-08-19T03:21:27.693Z,16.70
2022-08-19T03:23:59.126Z,16.70
2022-08-19T03:26:25.969Z,16.60
2022-08-19T03:28:58.127Z,16.60
2022-08-19T03:31:43.935Z,16.60
2022-08-19T03:34:19.063Z,16.60
2022-08-19T03:36:47.449Z,16.60
2022-08-19T03:39:14.985Z,16.50
2022-08-19T03:41:45.329Z,16.50
2022-08-19T03:44:16.949Z,16.60
2022-08-19T03:46:45.890Z,16.50
2022-08-19T03:49:14.421Z,16.60
2022-08-19T03:51:43.396Z,16.60
2022-08-19T03:54:13.760Z,16.50
2022-08-19T03:56:41.660Z,16.50
2022-08-19T03:59:11.746Z,16.50
2022-08-19T04:01:38.452Z,16.50
2022-08-19T04:04:05.302Z,16.50
2022-08-19T04:06:35.278Z,16.40
2022-08-19T04:09:07.533Z,16.30
2022-08-19T04:11:44.790Z,16.40
2022-08-19T04:14:19.921Z,16.40
2022-08-19T04:16:48.529Z,16.40
2022-08-19T04:19:16.500Z,16.40
2022-08-19T04:21:49.265Z,16.50
2022-08-19T04:24:16.508Z,16.40
2022-08-19T04:26:44.374Z,16.40
2022-08-19T04:29:15.369Z,16.40
2022-08-19T04:31:44.283Z,16.30
2022-08-19T04:34:13.873Z,16.30
2022-08-19T04:36:42.126Z,16.30
2022-08-19T04:39:17.459Z,16.30
2022-08-19T04:42:03.304Z,16.30
2022-08-19T04:44:31.548Z,16.30
2022-08-19T04:47:01.434Z,16.20
2022-08-19T04:49:28.711Z,16.30
2022-08-19T04:51:55.778Z,16.30
2022-08-19T04:54:37.673Z,16.30
2022-08-19T04:57:08.076Z,16.30
2022-08-19T04:59:35.502Z,16.20
2022-08-19T05:02:02.185Z,16.30
2022-08-19T05:04:32.735Z,16.30
2022-08-19T05:07:00.797Z,16.30
2022-08-19T05:09:55.484Z,16.30
2022-08-19T05:12:16.462Z,16.20
2022-08-19T05:14:43.313Z,16.30
2022-08-19T05:20:15.743Z,16.30
2022-08-19T05:22:44.659Z,16.30
2022-08-19T05:25:19.917Z,16.30
2022-08-19T05:27:47.352Z,16.40
2022-08-19T05:30:14.636Z,16.40
2022-08-19T05:32:41.761Z,16.50
2022-08-19T05:35:09.125Z,16.40
2022-08-19T05:37:35.795Z,16.40
2022-08-19T05:40:03.929Z,16.50
2022-08-19T05:42:31.529Z,16.50
2022-08-19T05:44:58.210Z,16.60
2022-08-19T05:47:24.883Z,16.60
2022-08-19T05:49:51.891Z,16.60
2022-08-19T05:52:19.327Z,16.70
2022-08-19T05:54:48.682Z,16.70
2022-08-19T05:57:19.438Z,16.70
2022-08-19T05:59:56.743Z,16.80
2022-08-19T06:02:27.060Z,16.80
2022-08-19T06:04:53.830Z,16.80
2022-08-19T06:07:20.655Z,16.90
2022-08-19T06:09:59.613Z,16.90
2022-08-19T06:12:35.187Z,16.90
2022-08-19T06:15:09.599Z,16.90
2022-08-19T06:17:36.618Z,17.00
2022-08-19T06:20:08.406Z,17.10
2022-08-19T06:22:43.748Z,17.20
2022-08-19T06:25:11.613Z,17.50
2022-08-19T06:27:48.266Z,17.50
2022-08-19T06:30:25.636Z,17.60
2022-08-19T06:32:52.369Z,17.70
2022-08-19T06:35:19.866Z,17.80
2022-08-19T06:37:46.549Z,17.80
2022-08-19T06:40:13.560Z,17.90
2022-08-19T06:42:44.829Z,17.90
2022-08-19T06:45:24.941Z,18.00
2022-08-19T06:48:01.646Z,18.00
2022-08-19T06:50:28.263Z,18.10
2022-08-19T06:52:55.290Z,18.10
2022-08-19T06:55:22.333Z,18.20
2022-08-19T06:57:49.299Z,18.20
2022-08-19T07:00:16.777Z,18.30
2022-08-19T07:02:48.286Z,18.30
2022-08-19T07:05:22.639Z,18.40
2022-08-19T07:07:49.261Z,18.40
2022-08-19T07:10:18.028Z,18.40
2022-08-19T07:12:45.305Z,18.50
2022-08-19T07:15:12.870Z,18.60
2022-08-19T07:17:40.239Z,18.60
2022-08-19T07:20:10.202Z,18.70
2022-08-19T07:22:40.740Z,18.80
2022-08-19T07:25:10.598Z,18.90
2022-08-19T07:27:39.585Z,18.90
2022-08-19T07:30:07.741Z,19.00
2022-08-19T07:32:38.491Z,19.10
2022-08-19T07:35:07.038Z,19.10
2022-08-19T07:37:33.776Z,19.10
2022-08-19T07:40:02.094Z,19.10
2022-08-19T07:42:30.591Z,19.20
2022-08-19T07:44:59.074Z,19.20
2022-08-19T07:47:50.286Z,19.00
2022-08-19T07:50:12.736Z,19.20
2022-08-19T07:52:40.374Z,19.30
2022-08-19T07:55:41.603Z,19.40
2022-08-19T07:57:57.763Z,19.40
2022-08-19T08:00:24.934Z,19.50
2022-08-19T08:02:55.728Z,19.60
2022-08-19T08:05:43.820Z,19.80
2022-08-19T08:08:32.495Z,19.80
2022-08-19T08:11:00.337Z,20.20
2022-08-19T08:13:28.037Z,20.70
2022-08-19T08:15:55.939Z,20.90
2022-08-19T08:18:27.484Z,21.00
2022-08-19T08:20:55.713Z,20.90
2022-08-19T08:23:30.085Z,20.90
2022-08-19T08:25:58.769Z,21.00
2022-08-19T08:28:29.679Z,21.00
2022-08-19T08:30:58.146Z,21.10
2022-08-19T08:33:33.192Z,21.20
2022-08-19T08:36:03.733Z,21.30
2022-08-19T08:38:38.390Z,21.40
2022-08-19T08:41:36.268Z,21.60
2022-08-19T08:44:05.236Z,22.00
2022-08-19T08:46:47.613Z,23.00
2022-08-19T08:49:39.119Z,23.80
2022-08-19T08:52:32.201Z,25.00
2022-08-19T08:55:04.154Z,25.90
2022-08-19T08:57:52.276Z,26.80
2022-08-19T09:00:21.823Z,27.60
2022-08-19T09:02:50.808Z,28.10
2022-08-19T09:05:22.173Z,28.20
2022-08-19T09:07:49.224Z,28.20
2022-08-19T09:10:22.504Z,27.90
2022-08-19T09:13:20.574Z,28.10
2022-08-19T09:15:55.354Z,28.30
2022-08-19T09:18:22.017Z,28.30
2022-08-19T09:20:49.088Z,28.10
2022-08-19T09:23:16.518Z,27.80
2022-08-19T09:25:43.284Z,28.10
2022-08-19T09:28:12.679Z,28.30
2022-08-19T09:30:48.914Z,28.50
2022-08-19T09:33:17.033Z,29.00
2022-08-19T09:35:49.529Z,28.50
2022-08-19T09:38:19.443Z,28.40
2022-08-19T09:40:46.056Z,28.70
2022-08-19T09:43:13.146Z,28.90
2022-08-19T09:45:40.721Z,28.80
2022-08-19T09:48:07.464Z,29.00
2022-08-19T09:50:39.369Z,28.80
2022-08-19T09:53:19.195Z,29.10
2022-08-19T09:55:45.955Z,29.10
2022-08-19T09:58:12.931Z,29.20
2022-08-19T10:00:40.049Z,29.20
2022-08-19T10:03:07.147Z,29.60
2022-08-19T10:05:50.348Z,29.70
2022-08-19T10:08:27.689Z,29.90
2022-08-19T10:10:55.899Z,29.70
2022-08-19T10:13:27.006Z,29.70
2022-08-19T10:15:56.749Z,29.80
2022-08-19T10:18:25.322Z,29.90
2022-08-19T10:20:54.477Z,29.90
2022-08-19T10:23:22.150Z,30.10
2022-08-19T10:25:50.472Z,30.10
2022-08-19T10:28:19.401Z,29.70
2022-08-19T10:30:47.227Z,29.80
2022-08-19T10:33:14.890Z,29.70
2022-08-19T10:35:42.831Z,29.90
2022-08-19T10:38:31.626Z,29.80
2022-08-19T10:40:59.212Z,29.50
2022-08-19T10:43:26.360Z,29.60
2022-08-19T10:45:56.692Z,30.00
2022-08-19T10:48:23.322Z,29.80
2022-08-19T10:51:09.150Z,29.90
2022-08-19T10:53:35.800Z,30.20
2022-08-19T10:56:21.661Z,29.70
2022-08-19T10:58:49.843Z,29.50
2022-08-19T11:01:16.663Z,29.20
2022-08-19T11:03:43.347Z,29.20
2022-08-19T11:06:10.072Z,29.20
2022-08-19T11:08:38.577Z,29.10
2022-08-19T11:11:06.963Z,29.10
2022-08-19T11:13:38.168Z,29.20
2022-08-19T11:16:08.607Z,29.40
2022-08-19T11:18:40.420Z,29.60
2022-08-19T11:21:10.183Z,30.00
2022-08-19T11:23:36.784Z,30.30
2022-08-19T11:26:04.077Z,30.20
2022-08-19T11:28:30.761Z,29.50
2022-08-19T11:30:57.771Z,28.90
2022-08-19T11:33:25.750Z,29.30
2022-08-19T11:35:52.537Z,29.40
2022-08-19T11:38:19.359Z,29.50
2022-08-19T11:40:55.612Z,29.70
2022-08-19T11:43:22.372Z,29.50
2022-08-19T11:45:49.634Z,29.50
2022-08-19T11:48:16.397Z,29.70
2022-08-19T11:50:44.402Z,29.80
2022-08-19T11:53:11.021Z,30.10
2022-08-19T11:55:44.062Z,30.10
2022-08-19T11:58:18.721Z,30.20
2022-08-19T12:00:46.088Z,30.10
2022-08-19T12:03:14.080Z,29.90
2022-08-19T12:05:41.801Z,29.90
2022-08-19T12:08:09.115Z,29.70
2022-08-19T12:10:36.726Z,30.00
2022-08-19T12:13:03.711Z,30.20
2022-08-19T12:15:37.141Z,30.20
2022-08-19T12:18:05.272Z,30.30
2022-08-19T12:20:32.031Z,30.40
2022-08-19T12:23:02.180Z,30.20
2022-08-19T12:25:28.902Z,30.20
2022-08-19T12:27:57.411Z,30.20
2022-08-19T12:30:24.929Z,30.20
2022-08-19T12:32:52.190Z,30.20
2022-08-19T12:35:20.981Z,30.10
2022-08-19T12:37:54.865Z,29.90
2022-08-19T12:40:24.340Z,29.60
2022-08-19T12:42:53.576Z,29.80
2022-08-19T12:45:20.213Z,29.90
2022-08-19T12:47:47.851Z,29.90
2022-08-19T12:50:16.721Z,30.00
2022-08-19T12:52:43.613Z,30.30
2022-08-19T12:55:12.256Z,30.50
2022-08-19T12:57:39.189Z,30.70
2022-08-19T13:00:16.736Z,30.50
2022-08-19T13:02:50.544Z,30.70
2022-08-19T13:05:23.604Z,30.40
2022-08-19T13:07:52.157Z,30.20
2022-08-19T13:10:21.725Z,30.30
2022-08-19T13:12:50.599Z,29.60
2022-08-19T13:15:23.786Z,29.40
2022-08-19T13:17:53.526Z,29.00
2022-08-19T13:20:23.041Z,28.80
2022-08-19T13:22:50.037Z,28.90
2022-08-19T13:25:19.424Z,29.10
2022-08-19T13:27:47.362Z,28.80
2022-08-19T13:30:34.646Z,28.80
2022-08-19T13:33:15.988Z,28.90
2022-08-19T13:35:50.061Z,28.90
2022-08-19T13:38:19.678Z,28.90
2022-08-19T13:40:47.180Z,29.20
2022-08-19T13:43:22.475Z,29.40
2022-08-19T13:45:56.257Z,29.50
2022-08-19T13:48:24.458Z,29.40
2022-08-19T13:50:51.189Z,29.50
2022-08-19T13:53:18.535Z,29.40
2022-08-19T13:55:45.477Z,29.20
2022-08-19T13:58:12.878Z,29.30
2022-08-19T14:00:43.872Z,29.00
2022-08-19T14:03:11.322Z,28.80
2022-08-19T14:05:39.006Z,28.80
2022-08-19T14:08:06.250Z,28.40
2022-08-19T14:10:34.179Z,28.60
2022-08-19T14:13:03.082Z,28.30
2022-08-19T14:15:30.586Z,28.40
2022-08-19T14:17:57.630Z,28.40
2022-08-19T14:20:26.020Z,28.40
2022-08-19T14:22:53.856Z,28.50
2022-08-19T14:25:24.838Z,28.70
2022-08-19T14:27:51.481Z,28.80
2022-08-19T14:30:21.669Z,28.90
2022-08-19T14:32:48.460Z,28.90
2022-08-19T14:35:16.525Z,28.90
2022-08-19T14:37:45.671Z,28.90
2022-08-19T14:40:15.083Z,28.80
2022-08-19T14:42:42.706Z,28.60
2022-08-19T14:45:10.490Z,28.80
2022-08-19T14:47:37.224Z,28.90
2022-08-19T14:50:18.390Z,28.70
2022-08-19T14:52:49.261Z,28.90
2022-08-19T14:55:18.053Z,28.80
2022-08-19T14:57:45.550Z,28.80
2022-08-19T15:00:14.032Z,28.70
2022-08-19T15:02:41.724Z,28.80
2022-08-19T15:05:08.913Z,28.80
2022-08-19T15:07:35.550Z,28.60
2022-08-19T15:10:02.192Z,28.30
2022-08-19T15:12:28.802Z,28.30
2022-08-19T15:14:57.142Z,28.40
2022-08-19T15:17:34.117Z,28.20
2022-08-19T15:20:13.521Z,28.30
2022-08-19T15:22:40.853Z,28.30
2022-08-19T15:25:09.350Z,28.30
2022-08-19T15:27:40.439Z,28.20
2022-08-19T15:30:09.093Z,28.20
2022-08-19T15:32:37.168Z,28.00
2022-08-19T15:35:05.431Z,27.90
2022-08-19T15:37:32.198Z,27.90
2022-08-19T15:40:05.262Z,27.90
2022-08-19T15:42:32.089Z,27.90
2022-08-19T15:45:00.472Z,27.70
2022-08-19T15:47:35.163Z,27.70
2022-08-19T15:50:15.411Z,27.60
2022-08-19T15:52:50.284Z,27.50
2022-08-19T15:55:34.020Z,27.50
2022-08-19T15:58:28.278Z,27.40
2022-08-19T16:01:18.806Z,27.40
2022-08-19T16:04:11.289Z,27.30
2022-08-19T16:06:52.139Z,27.20
2022-08-19T16:09:26.488Z,27.10
2022-08-19T16:11:56.887Z,27.10
2022-08-19T16:14:25.162Z,26.90
2022-08-19T16:16:52.048Z,26.90
2022-08-19T16:19:19.884Z,26.80
2022-08-19T16:21:49.081Z,26.80
2022-08-19T16:24:17.962Z,26.80
2022-08-19T16:26:45.853Z,26.70
2022-08-19T16:29:13.764Z,26.60
2022-08-19T16:31:43.387Z,26.60
2022-08-19T16:34:11.315Z,26.50
2022-08-19T16:36:41.687Z,26.40
2022-08-19T16:39:10.195Z,26.40
2022-08-19T16:41:37.629Z,26.30
2022-08-19T16:44:06.725Z,26.20
2022-08-19T16:46:33.379Z,26.10
2022-08-19T16:49:00.517Z,26.00
2022-08-19T16:51:28.347Z,26.00
2022-08-19T16:53:54.998Z,25.90
2022-08-19T16:56:22.282Z,25.90
2022-08-19T16:58:50.400Z,25.80
2022-08-19T17:01:18.033Z,25.80
2022-08-19T17:03:44.791Z,25.80
2022-08-19T17:06:20.449Z,25.80
2022-08-19T17:08:50.408Z,25.80
2022-08-19T17:11:19.572Z,25.70
2022-08-19T17:13:47.893Z,25.60
2022-08-19T17:16:16.280Z,25.60
2022-08-19T17:18:42.902Z,25.60
2022-08-19T17:21:09.973Z,25.50
2022-08-19T17:23:42.816Z,25.60
2022-08-19T17:26:18.009Z,25.50
2022-08-19T17:28:47.080Z,25.50
2022-08-19T17:31:13.706Z,25.30
2022-08-19T17:33:41.094Z,25.30
2022-08-19T17:36:09.265Z,25.30
2022-08-19T17:38:37.590Z,25.20
2022-08-19T17:41:05.316Z,25.20
2022-08-19T17:43:42.630Z,25.10
2022-08-19T17:46:20.248Z,25.10
2022-08-19T17:48:54.606Z,25.00
2022-08-19T17:51:25.642Z,25.00
2022-08-19T17:53:54.363Z,24.90
2022-08-19T17:56:22.014Z,24.90
2022-08-19T17:59:00.788Z,24.90
2022-08-19T18:01:30.732Z,24.80
2022-08-19T18:04:11.126Z,24.80
2022-08-19T18:06:38.451Z,24.70
2022-08-19T18:09:06.517Z,24.70
2022-08-19T18:11:33.747Z,24.60
2022-08-19T18:14:00.518Z,24.50
2022-08-19T18:16:27.379Z,24.40
2022-08-19T18:18:54.627Z,24.50
2022-08-19T18:21:21.898Z,24.50
2022-08-19T18:23:48.775Z,24.50
2022-08-19T18:26:15.662Z,24.50
2022-08-19T18:28:49.484Z,24.50
2022-08-19T18:31:17.036Z,24.50
2022-08-19T18:33:44.983Z,24.40
2022-08-19T18:36:12.001Z,24.40
2022-08-19T18:38:57.183Z,24.50
2022-08-19T18:41:43.530Z,24.50
2022-08-19T18:44:28.790Z,24.50
2022-08-19T18:47:14.402Z,24.50
2022-08-19T18:49:41.174Z,24.50
2022-08-19T18:52:07.857Z,24.40
2022-08-19T18:54:35.601Z,24.30
2022-08-19T18:57:03.366Z,24.30
2022-08-19T18:59:30.444Z,24.20
2022-08-19T19:01:59.165Z,24.00
2022-08-19T19:04:29.653Z,24.10
2022-08-19T19:06:56.441Z,24.00
2022-08-19T19:09:24.593Z,24.00
2022-08-19T19:11:57.919Z,24.00
2022-08-19T19:14:50.557Z,23.90
2022-08-19T19:17:26.891Z,23.90
2022-08-19T19:19:53.609Z,23.80
2022-08-19T19:22:21.930Z,23.80
2022-08-19T19:24:49.315Z,23.80
2022-08-19T19:27:18.487Z,23.80
2022-08-19T19:29:48.496Z,23.80
2022-08-19T19:32:26.003Z,23.80
2022-08-19T19:34:52.875Z,23.80
2022-08-19T19:37:19.875Z,23.70
2022-08-19T19:39:48.052Z,23.70
2022-08-19T19:42:21.001Z,23.60
2022-08-19T19:44:52.814Z,23.60
2022-08-19T19:47:23.407Z,23.60
2022-08-19T19:50:13.818Z,23.50
2022-08-19T19:52:41.620Z,23.40
2022-08-19T19:55:09.764Z,23.40
2022-08-19T19:57:39.979Z,23.30
2022-08-19T20:00:08.605Z,23.30
2022-08-19T20:02:35.222Z,23.20
2022-08-19T20:05:01.851Z,23.20
2022-08-19T20:07:46.867Z,23.10
2022-08-19T20:10:13.926Z,23.00
2022-08-19T20:12:40.539Z,22.90
2022-08-19T20:15:08.717Z,22.80
2022-08-19T20:17:42.423Z,22.80
2022-08-19T20:20:13.991Z,22.80
2022-08-19T20:22:44.282Z,22.70
2022-08-19T20:25:11.987Z,22.50
2022-08-19T20:27:40.116Z,22.50
2022-08-19T20:30:09.067Z,22.40
2022-08-19T20:32:42.679Z,22.40
2022-08-19T20:35:13.730Z,22.40
2022-08-19T20:37:41.514Z,22.30
2022-08-19T20:40:09.984Z,22.30
2022-08-19T20:42:40.994Z,22.20
2022-08-19T20:45:28.067Z,22.20
2022-08-19T20:47:56.995Z,22.20
2022-08-19T20:50:23.610Z,22.20
2022-08-19T20:52:53.443Z,22.10
2022-08-19T20:55:21.931Z,22.10
2022-08-19T20:57:48.679Z,22.00
2022-08-19T21:00:15.669Z,21.90
2022-08-19T21:02:42.276Z,22.00
2022-08-19T21:05:09.064Z,21.90
2022-08-19T21:07:39.307Z,21.80
2022-08-19T21:10:06.915Z,21.70
2022-08-19T21:12:33.562Z,21.80
2022-08-19T21:15:00.254Z,21.90
2022-08-19T21:17:26.875Z,21.70
2022-08-19T21:19:53.531Z,21.80
2022-08-19T21:22:20.194Z,21.70
2022-08-19T21:24:46.914Z,21.70
2022-08-19T21:27:13.530Z,21.70
2022-08-19T21:29:42.014Z,21.60
2022-08-19T21:32:11.046Z,21.60
2022-08-19T21:34:42.724Z,21.60
2022-08-19T21:37:18.977Z,21.50
2022-08-19T21:39:52.452Z,21.50
2022-08-19T21:42:19.264Z,21.50
2022-08-19T21:44:46.058Z,21.50
2022-08-19T21:47:12.898Z,21.50
2022-08-19T21:49:39.981Z,21.50
2022-08-19T21:52:08.123Z,21.50
2022-08-19T21:54:38.536Z,21.50
2022-08-19T21:57:10.126Z,21.50
2022-08-19T21:59:39.614Z,21.50
2022-08-19T22:02:19.607Z,21.40
2022-08-19T22:04:48.249Z,21.40
2022-08-19T22:07:14.981Z,21.40
2022-08-19T22:09:43.058Z,21.40
2022-08-19T22:12:19.878Z,21.40
2022-08-19T22:14:46.738Z,21.40
2022-08-19T22:17:14.577Z,21.40
2022-08-19T22:19:41.302Z,21.50
2022-08-19T22:22:08.160Z,21.40
2022-08-19T22:24:34.782Z,21.30
2022-08-19T22:27:02.357Z,21.40
2022-08-19T22:29:33.689Z,21.40
2022-08-19T22:32:01.535Z,21.40
2022-08-19T22:34:48.139Z,21.40
2022-08-19T22:37:14.757Z,21.30
2022-08-19T22:39:41.567Z,21.30
2022-08-19T22:42:08.538Z,21.30
2022-08-19T22:44:35.157Z,21.30
2022-08-19T22:47:02.207Z,21.40
2022-08-19T22:49:28.830Z,21.30
2022-08-19T22:52:13.941Z,21.20
2022-08-19T22:54:40.546Z,21.20
2022-08-19T22:57:07.237Z,21.10
2022-08-19T22:59:33.850Z,21.10
2022-08-19T23:02:00.454Z,21.10
2022-08-19T23:04:27.313Z,21.10
2022-08-19T23:06:53.997Z,21.10
2022-08-19T23:09:20.677Z,21.10
2022-08-19T23:11:50.286Z,21.10
2022-08-19T23:14:18.429Z,21.10
2022-08-19T23:16:50.763Z,21.00
2022-08-19T23:19:19.090Z,21.00
2022-08-19T23:21:45.709Z,21.00
2022-08-19T23:24:12.471Z,21.00
2022-08-19T23:26:59.859Z,21.00
2022-08-19T23:29:45.453Z,21.00
2022-08-19T23:32:13.961Z,21.10
2022-08-19T23:34:42.909Z,21.00
2022-08-19T23:37:09.547Z,21.00
2022-08-19T23:39:36.222Z,21.00
2022-08-19T23:42:03.664Z,21.00
2022-08-19T23:44:32.082Z,21.00
2022-08-19T23:47:00.305Z,20.90
2022-08-19T23:49:33.339Z,20.90
2022-08-19T23:52:00.018Z,21.00
2022-08-19T23:54:27.518Z,21.00
2022-08-19T23:57:13.738Z,21.00
2022-08-19T23:59:42.320Z,20.90
